• Join FlightAware (Why Join?)
  • Login
  • US Flag 
03:57AM EDT


 

Airport Tracker/Info


-or-


 

Live Flight TrackerFlight Track Log ✈ UCA3596 ✈ 30-Jun-2014 ✈ KEWR - KBGM

Flight Track Log - Related Links

Times and Time Zones

All times are in EDT time to prevent confusion due to time zone crossing. See the UCA3596 flight status page for this flight to view local times or setup timezone preferences in your user account.

Time Position Orientation Groundspeed Altitude Reporting Facility
EDT Latitude Longitude Course Direction KTS MPH feet Rate Location/Type
11:32AM 40.6500 -74.1667 270° West 152 175 2,000  Level New York TRACON
11:33AM 40.6500 -74.2167 270° West 193 222 3,200 1,500 Climbing New York TRACON
11:34AM 40.7000 -74.2167 360° North 210 242 4,900 1,620 Climbing New York TRACON
11:36AM 40.7742 -74.2731 330° Northwest 183 211 7,900 1,380 Climbing New York Center
11:37AM 40.8253 -74.3086 332° Northwest 183 211 9,000 540 Climbing New York Center
11:38AM 40.8889 -74.3394 340° North 222 255 9,000 60 Level New York Center
11:39AM 40.9567 -74.3706 341° North 247 284 9,200 900 Climbing New York Center
11:40AM 41.0161 -74.4011 339° North 235 270 10,800 1,260 Climbing New York Center
11:41AM 41.0697 -74.4258 341° North 224 258 11,800 600 Climbing New York Center
11:42AM 41.1353 -74.4597 339° North 232 267 12,000  Climbing New York Center
11:43AM 41.1903 -74.4986 332° Northwest 242 278 11,900  Descending New York Center
11:44AM 41.2397 -74.5814 308° West 247 284 12,000  Climbing New York Center
11:45AM 41.2792 -74.6500 307° West 260 299 12,000  Level New York Center
11:46AM 41.3286 -74.7300 309° West 254 292 12,000  Level New York Center
11:47AM 41.3700 -74.7989 309° West 254 292 12,000  Level New York Center
11:48AM 41.4192 -74.8792 309° West 254 292 12,000  Level New York Center
11:49AM 41.4644 -74.9539 309° West 259 298 12,000  Level New York Center
11:50AM 41.5036 -75.0231 307° West 259 298 12,000  Level New York Center
11:51AM 41.5489 -75.0950 310° West 259 298 12,000  Level New York Center
11:52AM 41.5981 -75.1786 308° West 259 298 12,000  Level New York Center
11:53AM 41.6408 -75.2536 307° West 254 292 12,000 -240 Level New York Center
11:54AM 41.6822 -75.3203 310° West 254 292 11,600 -540 Descending New York Center
11:55AM 41.7250 -75.3956 307° West 254 292 11,000 -1,020 Descending New York Center
11:56AM 41.7822 -75.4747 314° West 259 298 9,600 -1,380 Descending New York Center
11:57AM 41.8400 -75.5428 319° Northwest 271 312 8,300 -1,320 Descending New York Center
11:58AM 41.8936 -75.6050 319° Northwest 271 312 7,100 -1,200 Descending New York Center
11:59AM 41.9433 -75.6644 318° Northwest 271 312 6,000 -840 Descending New York Center
12:00PM 42.0006 -75.7358 317° Northwest 261 300 5,500 -960 Descending New York Center
12:01PM 42.0444 -75.7836 321° Northwest 250 288 4,100 -1,140 Descending New York Center
12:02PM 42.0922 -75.8347 322° Northwest 239 275 3,300 -360 Descending New York Center
12:03PM 42.1381 -75.8858 320° Northwest 222 255 3,400 -120 Climbing New York Center
12:04PM 42.1839 -75.9314 324° Northwest 217 250 3,100 -240 Descending New York Center
12:05PM 42.2261 -75.9628 331° Northwest 198 228 3,000 -360 Descending New York Center
12:06PM 42.2453 -76.0006 304° West 176 203 2,400 -420 Descending New York Center
12:07PM 42.2644 -76.0414 302° West 124 143 2,200 -240 Descending New York Center